Time;durP1;ratioP1;P1;durP2;ratioP2;P2;SDS_P1;SDS_P2;PMS_P1;PMS_P2;Temp;Humidity;BMP_temperature;BMP_pressure;BME280_temperature;BME280_humidity;BME280_pressure;Samples;Min_cycle;Max_cycle;Signal;HPM_P1;HPM_P2
2021/03/11 00:02:12;;;;;;;0.77;0.77;;;;;;;;;;5029877;28;20190;-70
2021/03/11 00:04:38;;;;;;;1.27;1.27;;;;;;;;;;5031170;28;20222;-69
2021/03/11 00:07:04;;;;;;;1.02;1.02;;;;;;;;;;5031135;28;20249;-70
2021/03/11 00:09:30;;;;;;;0.70;0.70;;;;;;;;;;5031155;28;20691;-70
2021/03/11 00:11:56;;;;;;;0.15;0.15;;;;;;;;;;5031193;28;20162;-68
2021/03/11 00:14:23;;;;;;;1.08;0.90;;;;;;;;;;5029751;28;20170;-68
2021/03/11 00:16:49;;;;;;;0.77;0.77;;;;;;;;;;5030819;28;20225;-69
2021/03/11 00:19:16;;;;;;;0.35;0.35;;;;;;;;;;5046173;28;20246;-68
2021/03/11 00:21:42;;;;;;;1.13;1.02;;;;;;;;;;5030913;28;20154;-70
2021/03/11 00:24:09;;;;;;;0.10;0.10;;;;;;;;;;5046069;28;20213;-69
2021/03/11 00:26:35;;;;;;;0.38;0.38;;;;;;;;;;5030608;28;20744;-68
2021/03/11 00:29:01;;;;;;;1.02;0.82;;;;;;;;;;5030832;28;20214;-69
2021/03/11 00:31:28;;;;;;;0.75;0.75;;;;;;;;;;5029343;28;20250;-69
2021/03/11 00:33:54;;;;;;;0.10;0.10;;;;;;;;;;5030672;28;20193;-69
2021/03/11 00:36:20;;;;;;;0.17;0.17;;;;;;;;;;5029293;28;20202;-70
2021/03/11 00:38:46;;;;;;;2.10;1.63;;;;;;;;;;5029280;28;20178;-71
2021/03/11 00:41:12;;;;;;;0.73;0.68;;;;;;;;;;5029280;28;20188;-68
2021/03/11 00:43:39;;;;;;;1.25;1.25;;;;;;;;;;5030404;28;20193;-70
2021/03/11 00:46:05;;;;;;;0.68;0.68;;;;;;;;;;5030478;28;20158;-70
2021/03/11 00:48:31;;;;;;;0.40;0.40;;;;;;;;;;5046684;28;20221;-70
2021/03/11 00:50:57;;;;;;;0.95;0.95;;;;;;;;;;5032492;28;20666;-71
2021/03/11 00:53:23;;;;;;;0.55;0.47;;;;;;;;;;5050119;28;20165;-70
2021/03/11 00:55:50;;;;;;;0.90;0.90;;;;;;;;;;5050010;28;20176;-69
2021/03/11 00:58:16;;;;;;;1.45;1.35;;;;;;;;;;5032439;28;20292;-70
2021/03/11 01:00:42;;;;;;;1.27;1.25;;;;;;;;;;5050035;28;20534;-69
2021/03/11 01:03:08;;;;;;;1.00;1.00;;;;;;;;;;5032073;28;20201;-69
2021/03/11 01:05:35;;;;;;;1.23;1.23;;;;;;;;;;5049875;28;20161;-69
2021/03/11 01:08:01;;;;;;;2.15;2.05;;;;;;;;;;5031921;28;20220;-69
2021/03/11 01:10:27;;;;;;;0.60;0.60;;;;;;;;;;5050298;28;20701;-70
2021/03/11 01:12:53;;;;;;;1.55;0.82;;;;;;;;;;5049870;28;20221;-70
2021/03/11 01:15:20;;;;;;;0.75;0.75;;;;;;;;;;5032029;28;20173;-70
2021/03/11 01:17:46;;;;;;;0.38;0.38;;;;;;;;;;5049496;28;20231;-71
2021/03/11 01:20:14;;;;;;;0.30;0.30;;;;;;;;;;5031879;28;20181;-68
2021/03/11 01:22:40;;;;;;;0.13;0.13;;;;;;;;;;5049542;28;20196;-71
2021/03/11 01:25:07;;;;;;;2.00;1.38;;;;;;;;;;5049493;28;20670;-72
2021/03/11 01:27:34;;;;;;;0.10;0.10;;;;;;;;;;5049479;28;20200;-71
2021/03/11 01:30:01;;;;;;;0.43;0.43;;;;;;;;;;5049566;28;20173;-69
2021/03/11 01:32:27;;;;;;;4.50;1.33;;;;;;;;;;5049550;28;20161;-70
2021/03/11 01:34:53;;;;;;;2.20;2.10;;;;;;;;;;5049463;28;20221;-70
2021/03/11 01:37:19;;;;;;;0.68;0.65;;;;;;;;;;5049358;28;20189;-68
2021/03/11 01:39:45;;;;;;;1.23;0.80;;;;;;;;;;5049341;28;20165;-71
2021/03/11 01:42:11;;;;;;;2.08;0.95;;;;;;;;;;5049081;28;20166;-70
2021/03/11 01:44:38;;;;;;;1.25;1.13;;;;;;;;;;5031424;28;20207;-71
2021/03/11 01:47:04;;;;;;;2.05;0.90;;;;;;;;;;5048938;28;20276;-70
2021/03/11 01:49:30;;;;;;;0.77;0.77;;;;;;;;;;5049207;28;20181;-69
2021/03/11 01:51:56;;;;;;;1.35;1.35;;;;;;;;;;5049310;28;20165;-71
2021/03/11 01:54:24;;;;;;;0.40;0.40;;;;;;;;;;5049222;28;20173;-68
2021/03/11 01:56:51;;;;;;;0.98;0.98;;;;;;;;;;5049064;28;20205;-71
2021/03/11 01:59:17;;;;;;;1.65;1.38;;;;;;;;;;5049193;28;20170;-71
2021/03/11 02:01:43;;;;;;;2.20;2.00;;;;;;;;;;5049256;28;20248;-69
2021/03/11 02:04:10;;;;;;;0.30;0.30;;;;;;;;;;5049075;28;20189;-69
2021/03/11 02:06:36;;;;;;;0.50;0.50;;;;;;;;;;5048349;28;20197;-69
2021/03/11 02:09:03;;;;;;;0.10;0.10;;;;;;;;;;5049104;28;20197;-69
2021/03/11 02:11:30;;;;;;;0.45;0.45;;;;;;;;;;5049056;28;20193;-70
2021/03/11 02:14:05;;;;;;;0.30;0.30;;;;;;;;;;5048453;28;20161;-69
2021/03/11 02:16:33;;;;;;;0.17;0.17;;;;;;;;;;5047619;28;20165;-71
2021/03/11 02:19:01;;;;;;;0.43;0.43;;;;;;;;;;5048901;28;20165;-69
2021/03/11 02:21:39;;;;;;;0.88;0.88;;;;;;;;;;5048873;28;20197;-70
2021/03/11 02:24:06;;;;;;;0.68;0.68;;;;;;;;;;5048873;28;20280;-70
2021/03/11 02:26:58;;;;;;;1.08;0.65;;;;;;;;;;5048918;28;20157;-71
2021/03/11 02:29:29;;;;;;;0.95;0.75;;;;;;;;;;5048996;28;20177;-70
2021/03/11 02:31:59;;;;;;;0.38;0.38;;;;;;;;;;5048869;28;20197;-70
2021/03/11 02:34:28;;;;;;;1.00;1.00;;;;;;;;;;5048830;28;20166;-70
2021/03/11 02:36:56;;;;;;;2.72;1.90;;;;;;;;;;5047624;28;20642;-69
2021/03/11 02:39:24;;;;;;;0.60;0.60;;;;;;;;;;5047526;28;20169;-71
2021/03/11 02:41:52;;;;;;;0.93;0.93;;;;;;;;;;5047364;28;20201;-70
2021/03/11 02:44:19;;;;;;;0.47;0.47;;;;;;;;;;5048719;28;20553;-71
2021/03/11 02:46:45;;;;;;;0.88;0.88;;;;;;;;;;5048644;28;20169;-69
2021/03/11 02:49:14;;;;;;;1.17;1.17;;;;;;;;;;5048673;28;20177;-70
2021/03/11 02:51:40;;;;;;;0.22;0.22;;;;;;;;;;5048673;28;20193;-70
2021/03/11 02:54:07;;;;;;;1.05;1.05;;;;;;;;;;5048718;28;20166;-70
2021/03/11 02:56:34;;;;;;;0.35;0.35;;;;;;;;;;5052166;28;20217;-71
2021/03/11 02:59:01;;;;;;;0.15;0.15;;;;;;;;;;5052428;28;20165;-71
2021/03/11 03:01:28;;;;;;;2.00;1.38;;;;;;;;;;5052157;28;20271;-70
2021/03/11 03:03:55;;;;;;;0.20;0.20;;;;;;;;;;5052154;28;20201;-71
2021/03/11 03:06:22;;;;;;;0.75;0.73;;;;;;;;;;5052279;28;20217;-70
2021/03/11 03:08:49;;;;;;;0.50;0.50;;;;;;;;;;5052214;28;20172;-69
2021/03/11 03:11:16;;;;;;;2.40;1.65;;;;;;;;;;5052072;28;20193;-71
2021/03/11 03:13:44;;;;;;;0.10;0.10;;;;;;;;;;5052034;28;20544;-69
2021/03/11 03:16:11;;;;;;;3.50;1.33;;;;;;;;;;5050699;28;20583;-71
2021/03/11 03:18:38;;;;;;;0.28;0.28;;;;;;;;;;5050707;28;20180;-69
2021/03/11 03:21:09;;;;;;;0.40;0.40;;;;;;;;;;5051931;28;20237;-69
2021/03/11 03:23:36;;;;;;;0.28;0.28;;;;;;;;;;5050502;28;20225;-71
2021/03/11 03:26:02;;;;;;;0.30;0.30;;;;;;;;;;5051832;28;20168;-71
2021/03/11 03:28:28;;;;;;;1.63;1.55;;;;;;;;;;5050510;28;20177;-71
2021/03/11 03:30:54;;;;;;;0.68;0.68;;;;;;;;;;5050288;28;20189;-70
2021/03/11 03:33:20;;;;;;;1.83;1.63;;;;;;;;;;5051593;28;20634;-70
2021/03/11 03:35:47;;;;;;;1.08;1.08;;;;;;;;;;5051685;28;20158;-69
2021/03/11 03:38:14;;;;;;;0.10;0.10;;;;;;;;;;5051487;28;20619;-69
2021/03/11 03:40:41;;;;;;;0.10;0.10;;;;;;;;;;5051320;28;20193;-69
2021/03/11 03:43:10;;;;;;;0.85;0.85;;;;;;;;;;5050593;28;20197;-69
2021/03/11 03:45:39;;;;;;;0.65;0.65;;;;;;;;;;5051389;28;20166;-69
2021/03/11 03:48:07;;;;;;;0.40;0.40;;;;;;;;;;5051108;28;20240;-69
2021/03/11 03:50:34;;;;;;;0.70;0.70;;;;;;;;;;5051207;28;20150;-70
2021/03/11 03:53:04;;;;;;;0.65;0.65;;;;;;;;;;5051124;28;20185;-69
2021/03/11 03:55:31;;;;;;;1.65;1.55;;;;;;;;;;5051018;28;20166;-71
2021/03/11 03:57:57;;;;;;;1.02;1.02;;;;;;;;;;5050969;28;20220;-69
2021/03/11 04:00:25;;;;;;;3.00;2.13;;;;;;;;;;5050967;28;20162;-70
2021/03/11 04:02:54;;;;;;;0.93;0.93;;;;;;;;;;5049540;28;20201;-69
2021/03/11 04:05:22;;;;;;;1.23;1.15;;;;;;;;;;5050623;28;20162;-69
2021/03/11 04:07:50;;;;;;;1.60;1.50;;;;;;;;;;5050823;28;20178;-70
2021/03/11 04:10:16;;;;;;;0.77;0.77;;;;;;;;;;5049656;28;20196;-70
2021/03/11 04:12:43;;;;;;;0.28;0.28;;;;;;;;;;5049578;28;20201;-71
2021/03/11 04:15:10;;;;;;;0.20;0.20;;;;;;;;;;5050763;28;20169;-72
2021/03/11 04:17:37;;;;;;;0.22;0.22;;;;;;;;;;5050500;28;20166;-70
2021/03/11 04:20:05;;;;;;;0.88;0.88;;;;;;;;;;5050771;28;20166;-69
2021/03/11 04:22:32;;;;;;;0.47;0.40;;;;;;;;;;5050623;28;20207;-71
2021/03/11 04:24:58;;;;;;;0.30;0.30;;;;;;;;;;5050707;28;20161;-71
2021/03/11 04:27:25;;;;;;;3.35;2.85;;;;;;;;;;5050432;28;20158;-71
2021/03/11 04:29:51;;;;;;;0.20;0.20;;;;;;;;;;5050554;28;20162;-71
2021/03/11 04:32:18;;;;;;;1.55;1.50;;;;;;;;;;5050361;28;20189;-71
2021/03/11 04:34:45;;;;;;;3.92;3.60;;;;;;;;;;5049105;28;20177;-71
2021/03/11 04:37:12;;;;;;;0.10;0.10;;;;;;;;;;5050321;28;20164;-71
2021/03/11 04:39:39;;;;;;;0.90;0.90;;;;;;;;;;5049029;28;20165;-69
2021/03/11 04:42:06;;;;;;;0.45;0.45;;;;;;;;;;5048748;28;20204;-69
2021/03/11 04:44:33;;;;;;;1.98;1.55;;;;;;;;;;5049878;28;20247;-69
2021/03/11 04:46:59;;;;;;;3.90;3.70;;;;;;;;;;5050056;28;20288;-69
2021/03/11 04:49:26;;;;;;;2.35;2.20;;;;;;;;;;5049758;28;20173;-71
2021/03/11 04:51:53;;;;;;;0.68;0.68;;;;;;;;;;5049855;28;20222;-71
2021/03/11 04:54:20;;;;;;;0.50;0.50;;;;;;;;;;5049687;28;20225;-69
2021/03/11 04:56:47;;;;;;;2.80;0.95;;;;;;;;;;5049866;28;20225;-70
2021/03/11 04:59:14;;;;;;;1.33;1.23;;;;;;;;;;5049647;28;20158;-71
2021/03/11 05:01:41;;;;;;;1.23;1.23;;;;;;;;;;5049252;28;20193;-69
2021/03/11 05:04:09;;;;;;;2.53;2.33;;;;;;;;;;5049578;28;20197;-69
2021/03/11 05:06:35;;;;;;;2.35;2.17;;;;;;;;;;5048381;28;20193;-70
2021/03/11 05:09:02;;;;;;;0.52;0.50;;;;;;;;;;5049649;28;20157;-69
2021/03/11 05:11:28;;;;;;;0.20;0.20;;;;;;;;;;5049150;28;20201;-70
2021/03/11 05:13:54;;;;;;;1.05;1.05;;;;;;;;;;5048147;28;20241;-69
2021/03/11 05:16:20;;;;;;;0.40;0.40;;;;;;;;;;5049414;28;20224;-69
2021/03/11 05:18:47;;;;;;;0.10;0.10;;;;;;;;;;5048639;28;20216;-69
2021/03/11 05:21:13;;;;;;;0.55;0.55;;;;;;;;;;5048061;28;20204;-69
2021/03/11 05:23:39;;;;;;;2.20;2.10;;;;;;;;;;5047554;28;20204;-69
2021/03/11 05:26:06;;;;;;;0.43;0.43;;;;;;;;;;5049253;28;20215;-69
2021/03/11 05:28:32;;;;;;;2.35;2.15;;;;;;;;;;5049098;28;20510;-69
2021/03/11 05:30:58;;;;;;;1.13;1.13;;;;;;;;;;5049101;28;20205;-71
2021/03/11 05:33:24;;;;;;;0.95;0.68;;;;;;;;;;5047942;28;20169;-72
2021/03/11 05:35:51;;;;;;;2.22;2.13;;;;;;;;;;5047997;28;20204;-71
2021/03/11 05:38:17;;;;;;;0.95;0.95;;;;;;;;;;5048914;28;20161;-70
2021/03/11 05:40:43;;;;;;;0.10;0.10;;;;;;;;;;5049138;28;20199;-70
2021/03/11 05:43:09;;;;;;;0.70;0.70;;;;;;;;;;5048908;28;20211;-69
2021/03/11 05:45:36;;;;;;;0.65;0.65;;;;;;;;;;5047730;28;20196;-68
2021/03/11 05:48:03;;;;;;;1.60;1.58;;;;;;;;;;5048689;28;20718;-69
2021/03/11 05:50:30;;;;;;;0.55;0.55;;;;;;;;;;5048980;28;20166;-69
2021/03/11 05:52:57;;;;;;;0.35;0.35;;;;;;;;;;5048519;28;20162;-71
2021/03/11 05:55:24;;;;;;;0.68;0.68;;;;;;;;;;5048759;28;20233;-72
2021/03/11 05:57:51;;;;;;;3.42;2.90;;;;;;;;;;5048898;28;20232;-71
2021/03/11 06:00:18;;;;;;;2.17;2.08;;;;;;;;;;5047176;28;20169;-71
2021/03/11 06:02:45;;;;;;;2.70;2.58;;;;;;;;;;5049061;28;20655;-72
2021/03/11 06:05:17;;;;;;;0.68;0.68;;;;;;;;;;5047081;28;20173;-70
2021/03/11 06:07:47;;;;;;;0.32;0.32;;;;;;;;;;5048882;28;20197;-70
2021/03/11 06:10:15;;;;;;;2.85;2.65;;;;;;;;;;5048280;28;20191;-70
2021/03/11 06:12:42;;;;;;;1.27;1.23;;;;;;;;;;5048512;28;20200;-70
2021/03/11 06:15:13;;;;;;;6.78;2.55;;;;;;;;;;5047218;28;20184;-69
2021/03/11 06:17:40;;;;;;;1.70;0.90;;;;;;;;;;5047204;28;20173;-70
2021/03/11 06:20:08;;;;;;;0.40;0.40;;;;;;;;;;5048298;28;20161;-69
2021/03/11 06:22:35;;;;;;;0.70;0.68;;;;;;;;;;5048249;28;20208;-70
2021/03/11 06:25:01;;;;;;;4.93;3.72;;;;;;;;;;5047163;28;20196;-70
2021/03/11 06:27:27;;;;;;;2.17;2.08;;;;;;;;;;5048609;28;20171;-70
2021/03/11 06:29:56;;;;;;;1.20;1.05;;;;;;;;;;5049936;28;20542;-70
2021/03/11 06:32:23;;;;;;;0.45;0.45;;;;;;;;;;5052125;28;20256;-70
2021/03/11 06:34:50;;;;;;;1.25;1.25;;;;;;;;;;5052102;28;20161;-70
2021/03/11 06:37:34;;;;;;;0.98;0.98;;;;;;;;;;5052416;28;20614;-70
2021/03/11 06:40:11;;;;;;;0.60;0.60;;;;;;;;;;5050919;28;20626;-70
2021/03/11 06:42:38;;;;;;;1.77;1.60;;;;;;;;;;5050573;28;20209;-70
2021/03/11 06:45:19;;;;;;;2.35;2.25;;;;;;;;;;5052171;28;20165;-69
2021/03/11 06:47:45;;;;;;;1.65;1.55;;;;;;;;;;5051812;28;20225;-71
2021/03/11 06:50:11;;;;;;;2.10;2.00;;;;;;;;;;5052099;28;20162;-70
2021/03/11 06:52:37;;;;;;;0.45;0.45;;;;;;;;;;5052189;28;20177;-70
2021/03/11 06:55:06;;;;;;;3.35;3.15;;;;;;;;;;5050725;28;20205;-71
2021/03/11 06:57:33;;;;;;;4.97;4.47;;;;;;;;;;5051966;28;20185;-70
2021/03/11 07:00:00;;;;;;;1.08;1.08;;;;;;;;;;5051886;28;20169;-69
2021/03/11 07:02:27;;;;;;;0.28;0.28;;;;;;;;;;5051802;28;20579;-70
2021/03/11 07:04:54;;;;;;;0.70;0.70;;;;;;;;;;5050680;28;20162;-70
2021/03/11 07:07:22;;;;;;;5.63;3.90;;;;;;;;;;5051857;28;20193;-69
2021/03/11 07:09:49;;;;;;;0.80;0.80;;;;;;;;;;5051415;28;20227;-70
2021/03/11 07:12:16;;;;;;;0.38;0.38;;;;;;;;;;5051841;28;20594;-70
2021/03/11 07:14:43;;;;;;;0.20;0.20;;;;;;;;;;5048724;28;20181;-69
2021/03/11 07:17:19;;;;;;;1.27;1.27;;;;;;;;;;5050207;28;20201;-70
2021/03/11 07:20:04;;;;;;;0.50;0.50;;;;;;;;;;5050918;28;20200;-68
2021/03/11 07:22:30;;;;;;;0.55;0.55;;;;;;;;;;5051524;28;20196;-69
2021/03/11 07:24:56;;;;;;;0.95;0.93;;;;;;;;;;5050918;28;20161;-70
2021/03/11 07:27:23;;;;;;;2.05;1.95;;;;;;;;;;5050920;28;20265;-69
2021/03/11 07:30:05;;;;;;;2.90;2.80;;;;;;;;;;5033525;28;20165;-70
2021/03/11 07:32:33;;;;;;;0.77;0.77;;;;;;;;;;5051313;28;20164;-70
2021/03/11 07:35:00;;;;;;;2.70;1.65;;;;;;;;;;5050932;28;20188;-70
2021/03/11 07:37:27;;;;;;;0.63;0.63;;;;;;;;;;5032613;28;20228;-69
2021/03/11 07:39:54;;;;;;;0.40;0.40;;;;;;;;;;5050627;28;20192;-71
2021/03/11 07:42:20;;;;;;;1.17;1.15;;;;;;;;;;5050684;28;20158;-70
2021/03/11 07:44:47;;;;;;;2.47;2.28;;;;;;;;;;5049181;28;20548;-70
2021/03/11 07:47:13;;;;;;;0.77;0.77;;;;;;;;;;5050164;28;20229;-70
2021/03/11 07:49:41;;;;;;;2.58;2.35;;;;;;;;;;5050971;28;20162;-70
2021/03/11 07:52:08;;;;;;;0.50;0.50;;;;;;;;;;5044928;28;20183;-70
2021/03/11 07:54:35;;;;;;;2.28;2.05;;;;;;;;;;5038660;28;20181;-70
2021/03/11 07:57:01;;;;;;;2.30;2.13;;;;;;;;;;5030681;28;20269;-70
2021/03/11 07:59:28;;;;;;;1.55;1.00;;;;;;;;;;5031805;28;20200;-69
2021/03/11 08:01:54;;;;;;;0.68;0.32;;;;;;;;;;5049982;28;20272;-75
2021/03/11 08:04:22;;;;;;;1.13;1.13;;;;;;;;;;5030210;28;20205;-74
2021/03/11 08:06:49;;;;;;;3.70;3.17;;;;;;;;;;5028887;28;20197;-72
2021/03/11 08:09:34;;;;;;;2.17;2.08;;;;;;;;;;5021901;28;20188;-75
2021/03/11 08:12:21;;;;;;;0.30;0.30;;;;;;;;;;5044754;28;20184;-73
2021/03/11 08:14:48;;;;;;;0.43;0.43;;;;;;;;;;5049824;28;20185;-76
2021/03/11 08:17:37;;;;;;;1.95;1.85;;;;;;;;;;5049854;28;20285;-75
2021/03/11 08:20:26;;;;;;;1.60;1.52;;;;;;;;;;5022950;28;20201;-77
2021/03/11 08:22:53;;;;;;;2.95;1.42;;;;;;;;;;5049864;28;20236;-75
2021/03/11 08:25:25;;;;;;;3.20;3.00;;;;;;;;;;5031981;28;20176;-78
2021/03/11 08:27:54;;;;;;;4.90;2.40;;;;;;;;;;5049720;28;20215;-75
2021/03/11 08:30:39;;;;;;;2.78;1.25;;;;;;;;;;5050369;28;20161;-77
2021/03/11 08:33:15;;;;;;;4.53;1.90;;;;;;;;;;5050228;28;20192;-76
2021/03/11 08:35:43;;;;;;;4.00;2.42;;;;;;;;;;5049718;28;20196;-76
2021/03/11 08:38:21;;;;;;;1.92;1.83;;;;;;;;;;5049483;28;20162;-75
2021/03/11 08:40:55;;;;;;;2.13;1.30;;;;;;;;;;5032223;28;20184;-75
2021/03/11 08:43:33;;;;;;;1.70;1.65;;;;;;;;;;5032221;28;20197;-76
2021/03/11 08:45:59;;;;;;;0.65;0.60;;;;;;;;;;5049371;28;20168;-76
2021/03/11 08:48:25;;;;;;;1.30;1.20;;;;;;;;;;5049601;28;20794;-76
2021/03/11 08:50:53;;;;;;;3.28;3.03;;;;;;;;;;5032147;28;20592;-76
2021/03/11 08:53:35;;;;;;;1.85;1.75;;;;;;;;;;5030867;28;20244;-77
2021/03/11 08:56:01;;;;;;;1.30;1.20;;;;;;;;;;5049209;28;20197;-76
2021/03/11 08:58:28;;;;;;;1.75;1.67;;;;;;;;;;5031519;28;20169;-76
2021/03/11 09:00:58;;;;;;;2.78;2.53;;;;;;;;;;5049115;28;20181;-77
2021/03/11 09:03:36;;;;;;;3.25;2.17;;;;;;;;;;5049071;28;20193;-76
2021/03/11 09:06:03;;;;;;;1.80;1.58;;;;;;;;;;5049008;28;20236;-77
2021/03/11 09:08:30;;;;;;;1.38;1.33;;;;;;;;;;5048925;28;20188;-77
2021/03/11 09:11:13;;;;;;;2.10;1.85;;;;;;;;;;5048378;28;20161;-76
2021/03/11 09:13:40;;;;;;;1.27;1.15;;;;;;;;;;5049377;28;20732;-77
2021/03/11 09:16:06;;;;;;;0.68;0.68;;;;;;;;;;5048932;28;20201;-75
2021/03/11 09:18:33;;;;;;;3.47;2.80;;;;;;;;;;5031559;28;20169;-76
2021/03/11 09:20:59;;;;;;;1.80;1.70;;;;;;;;;;5049057;28;20197;-77
2021/03/11 09:23:35;;;;;;;1.48;1.38;;;;;;;;;;5049415;28;20658;-77
2021/03/11 09:26:01;;;;;;;1.40;1.00;;;;;;;;;;5049348;28;20176;-77
2021/03/11 09:28:27;;;;;;;1.83;1.65;;;;;;;;;;5031647;28;20157;-77
2021/03/11 09:30:53;;;;;;;0.65;0.65;;;;;;;;;;5049125;28;20189;-76
2021/03/11 09:33:22;;;;;;;1.42;1.42;;;;;;;;;;5049353;28;20622;-77
2021/03/11 09:35:49;;;;;;;1.40;1.35;;;;;;;;;;5049205;28;20162;-78
2021/03/11 09:38:23;;;;;;;0.32;0.32;;;;;;;;;;5048998;28;20157;-77
2021/03/11 09:40:54;;;;;;;1.65;1.55;;;;;;;;;;5048846;28;20288;-77
2021/03/11 09:43:27;;;;;;;1.73;1.63;;;;;;;;;;5049016;28;20188;-77
2021/03/11 09:45:54;;;;;;;4.00;1.20;;;;;;;;;;5048826;28;20172;-75
2021/03/11 09:48:22;;;;;;;1.88;1.77;;;;;;;;;;5048630;28;20217;-76
2021/03/11 09:51:07;;;;;;;2.58;2.47;;;;;;;;;;5048860;28;20201;-77
2021/03/11 09:53:42;;;;;;;2.83;2.42;;;;;;;;;;5030291;28;20173;-77
2021/03/11 09:56:13;;;;;;;0.55;0.55;;;;;;;;;;5047775;28;20208;-77
2021/03/11 09:58:47;;;;;;;0.30;0.30;;;;;;;;;;5030033;28;20176;-77
2021/03/11 10:01:20;;;;;;;5.03;1.73;;;;;;;;;;5046720;28;20181;-76
2021/03/11 10:03:46;;;;;;;3.08;2.97;;;;;;;;;;5023037;28;20295;-77
2021/03/11 10:06:14;;;;;;;0.98;0.95;;;;;;;;;;5051935;28;20177;-77
2021/03/11 10:08:41;;;;;;;1.65;1.55;;;;;;;;;;5052700;28;20173;-77
2021/03/11 10:11:18;;;;;;;1.27;1.17;;;;;;;;;;5052870;28;20169;-78
2021/03/11 10:13:46;;;;;;;1.20;1.20;;;;;;;;;;5052950;28;20245;-77
2021/03/11 10:16:13;;;;;;;1.23;1.13;;;;;;;;;;5035040;28;20177;-76
2021/03/11 10:18:59;;;;;;;3.92;3.35;;;;;;;;;;5035112;28;20196;-77
2021/03/11 10:21:26;;;;;;;1.10;1.10;;;;;;;;;;5034896;28;20252;-75
2021/03/11 10:23:52;;;;;;;0.55;0.55;;;;;;;;;;5052483;28;20201;-77
2021/03/11 10:26:19;;;;;;;1.20;1.20;;;;;;;;;;5052801;28;20219;-76
2021/03/11 10:28:47;;;;;;;2.45;2.35;;;;;;;;;;5052748;28;20630;-78
2021/03/11 10:31:14;;;;;;;0.17;0.17;;;;;;;;;;5052728;28;20169;-76
2021/03/11 10:33:41;;;;;;;1.55;1.45;;;;;;;;;;5034956;28;20199;-77
2021/03/11 10:36:11;;;;;;;2.10;2.00;;;;;;;;;;5052533;28;20180;-76
2021/03/11 10:38:37;;;;;;;1.00;1.00;;;;;;;;;;5034375;28;20172;-75
2021/03/11 10:41:14;;;;;;;2.38;2.25;;;;;;;;;;5052527;28;20188;-76
2021/03/11 10:43:41;;;;;;;1.25;1.10;;;;;;;;;;5034428;28;20209;-77
2021/03/11 10:46:08;;;;;;;3.00;2.63;;;;;;;;;;5034444;28;20242;-76
2021/03/11 10:49:00;;;;;;;0.52;0.52;;;;;;;;;;5052088;28;20216;-76
2021/03/11 10:51:29;;;;;;;0.85;0.85;;;;;;;;;;5031677;28;20200;-76
2021/03/11 10:53:58;;;;;;;10.35;2.72;;;;;;;;;;5034218;28;20278;-76
2021/03/11 10:56:25;;;;;;;0.88;0.88;;;;;;;;;;5052314;28;20173;-75
2021/03/11 10:58:59;;;;;;;2.78;2.13;;;;;;;;;;5052040;28;20170;-76
2021/03/11 11:01:27;;;;;;;1.83;1.42;;;;;;;;;;5052180;28;20165;-75
2021/03/11 11:03:54;;;;;;;2.65;1.58;;;;;;;;;;5043850;28;20217;-75
2021/03/11 11:06:24;;;;;;;3.30;1.58;;;;;;;;;;5032422;28;20162;-77
2021/03/11 11:08:50;;;;;;;1.15;1.15;;;;;;;;;;5050669;28;20176;-77
2021/03/11 11:11:18;;;;;;;0.77;0.77;;;;;;;;;;5051833;28;20602;-76
2021/03/11 11:13:44;;;;;;;2.28;2.17;;;;;;;;;;5051687;28;20672;-77
2021/03/11 11:16:11;;;;;;;1.60;1.52;;;;;;;;;;5050834;28;20166;-77
2021/03/11 11:18:38;;;;;;;1.70;1.65;;;;;;;;;;5033779;28;20177;-77
2021/03/11 11:21:04;;;;;;;1.35;1.33;;;;;;;;;;5051721;28;20172;-76
2021/03/11 11:23:31;;;;;;;2.60;1.55;;;;;;;;;;5051541;28;20261;-76
2021/03/11 11:25:57;;;;;;;1.83;1.73;;;;;;;;;;5051782;28;20164;-76
2021/03/11 11:28:23;;;;;;;2.13;2.03;;;;;;;;;;5051749;28;20163;-77
2021/03/11 11:30:50;;;;;;;0.57;0.57;;;;;;;;;;5051612;28;20168;-77
2021/03/11 11:33:16;;;;;;;1.42;1.42;;;;;;;;;;5051469;28;20208;-76
2021/03/11 11:35:42;;;;;;;0.98;0.98;;;;;;;;;;5051514;28;20162;-76
2021/03/11 11:38:08;;;;;;;4.03;1.98;;;;;;;;;;5051407;28;20179;-77
2021/03/11 11:40:34;;;;;;;2.10;1.92;;;;;;;;;;5033421;28;20162;-76
2021/03/11 11:43:01;;;;;;;5.70;1.67;;;;;;;;;;5033393;28;20209;-76
2021/03/11 11:45:28;;;;;;;3.05;2.53;;;;;;;;;;5033567;28;20184;-78
2021/03/11 11:47:54;;;;;;;1.08;1.08;;;;;;;;;;5050981;28;20220;-78
2021/03/11 11:50:20;;;;;;;0.77;0.77;;;;;;;;;;5050938;28;20162;-77
2021/03/11 11:52:47;;;;;;;1.20;0.88;;;;;;;;;;5050957;28;20261;-78
2021/03/11 11:55:13;;;;;;;3.58;1.05;;;;;;;;;;5051181;28;20170;-77
2021/03/11 11:57:40;;;;;;;1.55;1.05;;;;;;;;;;5033054;28;20177;-77
2021/03/11 12:00:08;;;;;;;2.00;1.00;;;;;;;;;;5033283;28;20166;-76
2021/03/11 12:02:34;;;;;;;1.20;1.17;;;;;;;;;;5033087;28;20296;-76
2021/03/11 12:05:02;;;;;;;0.82;0.82;;;;;;;;;;5033065;28;20165;-77
2021/03/11 12:07:28;;;;;;;0.43;0.43;;;;;;;;;;5029526;28;20182;-76
2021/03/11 12:09:55;;;;;;;1.05;1.05;;;;;;;;;;5031275;28;20166;-76
2021/03/11 12:12:21;;;;;;;0.60;0.60;;;;;;;;;;5050863;28;20239;-75
2021/03/11 12:14:47;;;;;;;1.23;1.00;;;;;;;;;;5032941;28;20248;-76
2021/03/11 12:17:13;;;;;;;1.10;1.10;;;;;;;;;;5051159;28;20642;-76
2021/03/11 12:19:40;;;;;;;1.10;1.10;;;;;;;;;;5053539;28;20208;-75
2021/03/11 12:22:06;;;;;;;0.98;0.98;;;;;;;;;;5052403;28;20169;-76
2021/03/11 12:24:32;;;;;;;0.63;0.63;;;;;;;;;;5052307;28;20665;-75
2021/03/11 12:26:58;;;;;;;2.60;2.20;;;;;;;;;;5070057;28;20168;-76
2021/03/11 12:29:24;;;;;;;1.88;1.77;;;;;;;;;;5070196;28;20180;-76
2021/03/11 12:31:50;;;;;;;2.20;0.82;;;;;;;;;;5069998;28;20630;-77
2021/03/11 12:34:17;;;;;;;1.08;1.08;;;;;;;;;;5070208;28;20168;-75
2021/03/11 12:36:43;;;;;;;2.70;2.50;;;;;;;;;;5070164;28;20168;-76
2021/03/11 12:39:10;;;;;;;2.20;1.98;;;;;;;;;;5069975;28;20156;-75
2021/03/11 12:41:37;;;;;;;1.52;1.42;;;;;;;;;;5051919;28;20172;-77
2021/03/11 12:44:03;;;;;;;0.45;0.45;;;;;;;;;;5070095;28;20193;-76
2021/03/11 12:46:30;;;;;;;2.95;1.58;;;;;;;;;;5069924;28;20164;-76
2021/03/11 12:48:56;;;;;;;4.90;1.70;;;;;;;;;;5069727;28;20220;-76
2021/03/11 12:51:22;;;;;;;2.08;1.98;;;;;;;;;;5051638;28;20200;-76
2021/03/11 12:53:48;;;;;;;0.73;0.73;;;;;;;;;;5051689;28;20179;-76
2021/03/11 12:56:15;;;;;;;0.52;0.52;;;;;;;;;;5069792;28;20165;-77
2021/03/11 12:58:41;;;;;;;0.98;0.90;;;;;;;;;;5069835;28;20161;-76
2021/03/11 13:01:08;;;;;;;3.15;2.95;;;;;;;;;;5069815;28;20268;-76
2021/03/11 13:03:35;;;;;;;1.83;1.73;;;;;;;;;;5069739;28;20201;-77
2021/03/11 13:06:01;;;;;;;1.05;0.98;;;;;;;;;;5051537;28;20629;-76
2021/03/11 13:08:28;;;;;;;0.77;0.77;;;;;;;;;;5055594;28;20178;-77
2021/03/11 13:10:54;;;;;;;2.50;2.33;;;;;;;;;;5049248;28;20193;-76
2021/03/11 13:13:21;;;;;;;1.85;1.73;;;;;;;;;;5049533;28;20188;-76
2021/03/11 13:15:47;;;;;;;0.32;0.32;;;;;;;;;;5031866;28;20192;-75
2021/03/11 13:18:13;;;;;;;0.68;0.55;;;;;;;;;;5049214;28;20165;-76
2021/03/11 13:20:39;;;;;;;0.80;0.80;;;;;;;;;;5049427;28;20196;-75
2021/03/11 13:23:05;;;;;;;3.20;2.88;;;;;;;;;;5048921;28;20185;-77
2021/03/11 13:25:32;;;;;;;4.18;1.02;;;;;;;;;;5049288;28;20158;-77
2021/03/11 13:27:58;;;;;;;0.38;0.38;;;;;;;;;;5049446;28;20169;-77
2021/03/11 13:30:24;;;;;;;0.75;0.68;;;;;;;;;;5048997;28;20193;-77
2021/03/11 13:32:50;;;;;;;2.40;2.30;;;;;;;;;;5031449;28;20239;-76
2021/03/11 13:35:18;;;;;;;2.35;0.77;;;;;;;;;;5049217;28;20164;-77
2021/03/11 13:37:44;;;;;;;1.98;1.83;;;;;;;;;;5049085;28;20169;-76
2021/03/11 13:40:11;;;;;;;2.33;2.15;;;;;;;;;;5030848;28;20240;-77
2021/03/11 13:42:37;;;;;;;2.58;2.47;;;;;;;;;;5048701;28;20196;-77
2021/03/11 13:45:04;;;;;;;1.95;1.85;;;;;;;;;;5030977;28;20260;-77
2021/03/11 13:47:30;;;;;;;2.20;2.05;;;;;;;;;;5048446;28;20263;-75
2021/03/11 13:49:58;;;;;;;1.88;1.73;;;;;;;;;;5032290;28;20247;-75
2021/03/11 13:52:24;;;;;;;0.65;0.65;;;;;;;;;;5048966;28;20192;-75
2021/03/11 13:54:50;;;;;;;6.47;0.80;;;;;;;;;;5031294;28;20180;-76
2021/03/11 13:57:16;;;;;;;1.13;1.13;;;;;;;;;;5048879;28;20168;-74
2021/03/11 13:59:42;;;;;;;2.35;1.63;;;;;;;;;;5031045;28;20193;-74
2021/03/11 14:02:08;;;;;;;5.28;1.52;;;;;;;;;;5030551;28;20216;-76
2021/03/11 14:04:35;;;;;;;1.65;1.63;;;;;;;;;;5031250;28;20284;-75
2021/03/11 14:07:01;;;;;;;4.28;1.58;;;;;;;;;;5048776;28;20158;-75
2021/03/11 14:09:27;;;;;;;1.00;0.85;;;;;;;;;;5048456;28;20196;-76
2021/03/11 14:11:53;;;;;;;1.15;1.15;;;;;;;;;;5048707;28;20661;-76
2021/03/11 14:14:19;;;;;;;0.30;0.30;;;;;;;;;;5030836;28;20173;-76
2021/03/11 14:16:46;;;;;;;0.77;0.77;;;;;;;;;;5030936;28;20176;-77
2021/03/11 14:19:12;;;;;;;1.75;1.65;;;;;;;;;;5048699;28;20173;-76
2021/03/11 14:21:38;;;;;;;0.82;0.82;;;;;;;;;;5048720;28;20188;-77
2021/03/11 14:24:04;;;;;;;3.83;2.03;;;;;;;;;;5048925;28;20196;-77
2021/03/11 14:26:31;;;;;;;0.70;0.70;;;;;;;;;;5048478;28;20237;-76
2021/03/11 14:28:57;;;;;;;0.63;0.63;;;;;;;;;;5047797;28;20182;-77
2021/03/11 14:31:23;;;;;;;2.28;2.17;;;;;;;;;;5047794;28;20197;-76
2021/03/11 14:33:50;;;;;;;1.17;1.17;;;;;;;;;;5045830;28;20208;-77
2021/03/11 14:36:17;;;;;;;1.40;0.65;;;;;;;;;;5048454;28;20192;-76
2021/03/11 14:38:43;;;;;;;0.77;0.75;;;;;;;;;;5038954;28;20212;-76
2021/03/11 14:41:09;;;;;;;1.00;0.95;;;;;;;;;;5046623;28;20204;-76
2021/03/11 14:43:35;;;;;;;0.80;0.40;;;;;;;;;;5029568;28;20255;-76
2021/03/11 14:46:02;;;;;;;0.70;0.68;;;;;;;;;;5047167;28;20177;-76
2021/03/11 14:48:29;;;;;;;3.00;1.48;;;;;;;;;;5047748;28;20560;-75